createdAt,value
2018-12-19T00:02:14.230Z,51.50
2018-12-19T00:04:53.619Z,54.20
2018-12-19T00:07:32.411Z,51.97
2018-12-19T00:10:14.891Z,52.20
2018-12-19T00:12:57.671Z,49.17
2018-12-19T00:15:37.513Z,51.67
2018-12-19T00:18:21.273Z,56.27
2018-12-19T00:21:02.847Z,51.50
2018-12-19T00:23:41.873Z,53.27
2018-12-19T00:26:21.967Z,54.90
2018-12-19T00:29:01.585Z,48.37
2018-12-19T00:31:38.952Z,50.53
2018-12-19T00:34:21.316Z,50.70
2018-12-19T00:36:59.606Z,54.83
2018-12-19T00:39:37.476Z,58.27
2018-12-19T00:42:17.445Z,56.47
2018-12-19T00:44:57.053Z,57.07
2018-12-19T00:47:40.676Z,50.53
2018-12-19T00:50:21.762Z,55.83
2018-12-19T00:53:02.729Z,52.80
2018-12-19T00:55:42.866Z,55.37
2018-12-19T00:58:22.536Z,37.57
2018-12-19T01:01:02.044Z,55.07
2018-12-19T01:03:41.575Z,52.00
2018-12-19T01:06:23.664Z,53.50
2018-12-19T01:09:02.801Z,49.10
2018-12-19T01:11:41.263Z,50.03
2018-12-19T01:14:20.618Z,48.83
2018-12-19T01:16:59.576Z,50.43
2018-12-19T01:19:42.484Z,50.20
2018-12-19T01:22:21.728Z,51.00
2018-12-19T01:25:02.895Z,50.93
2018-12-19T01:27:45.361Z,53.00
2018-12-19T01:30:26.824Z,45.63
2018-12-19T01:33:08.792Z,51.93
2018-12-19T01:35:49.769Z,52.10
2018-12-19T01:38:30.698Z,46.87
2018-12-19T01:41:10.690Z,50.13
2018-12-19T01:43:52.078Z,49.33
2018-12-19T01:46:31.548Z,48.57
2018-12-19T01:49:15.495Z,47.67
2018-12-19T01:51:56.177Z,50.47
2018-12-19T01:54:34.830Z,48.07
2018-12-19T01:57:13.131Z,49.13
2018-12-19T01:59:54.225Z,46.53
2018-12-19T02:02:36.747Z,44.83
2018-12-19T02:05:15.783Z,37.47
2018-12-19T02:07:56.745Z,48.40
2018-12-19T02:10:36.415Z,47.17
2018-12-19T02:13:16.437Z,50.97
2018-12-19T02:15:56.683Z,44.87
2018-12-19T02:18:39.912Z,48.27
2018-12-19T02:21:21.052Z,49.03
2018-12-19T02:23:54.671Z,48.90
2018-12-19T02:26:36.233Z,48.93
2018-12-19T02:29:13.352Z,41.97
2018-12-19T02:31:51.093Z,50.57
2018-12-19T02:34:28.809Z,40.73
2018-12-19T02:37:09.819Z,47.17
2018-12-19T02:39:50.795Z,46.33
2018-12-19T02:42:30.428Z,43.57
2018-12-19T02:45:11.770Z,45.93
2018-12-19T02:47:49.909Z,45.43
2018-12-19T02:50:33.704Z,43.07
2018-12-19T02:53:12.351Z,46.00
2018-12-19T02:55:52.780Z,32.80
2018-12-19T02:58:35.867Z,41.53
2018-12-19T03:01:14.161Z,42.47
2018-12-19T03:03:54.231Z,44.50
2018-12-19T03:06:33.318Z,45.23
2018-12-19T03:09:15.139Z,39.13
2018-12-19T03:11:54.578Z,43.63
2018-12-19T03:14:34.226Z,39.47
2018-12-19T03:17:13.125Z,38.17
2018-12-19T03:19:53.326Z,41.87
2018-12-19T03:22:33.365Z,43.97
2018-12-19T03:25:13.703Z,42.03
2018-12-19T03:27:54.163Z,38.97
2018-12-19T03:30:35.413Z,42.13
2018-12-19T03:33:14.736Z,41.87
2018-12-19T03:35:54.086Z,42.30
2018-12-19T03:38:33.708Z,43.10
2018-12-19T03:41:14.187Z,42.87
2018-12-19T03:43:53.223Z,28.10
2018-12-19T03:46:32.420Z,42.57
2018-12-19T03:49:14.772Z,33.53
2018-12-19T03:51:55.824Z,42.27
2018-12-19T03:54:35.832Z,41.67
2018-12-19T03:57:15.620Z,41.53
2018-12-19T04:00:03.969Z,39.43
2018-12-19T04:02:42.178Z,39.83
2018-12-19T04:05:22.532Z,39.77
2018-12-19T04:08:02.057Z,35.43
2018-12-19T04:10:43.066Z,31.83
2018-12-19T04:13:23.627Z,37.83
2018-12-19T04:16:00.982Z,38.67
2018-12-19T04:18:44.340Z,40.90
2018-12-19T04:21:27.249Z,36.83
2018-12-19T04:24:08.670Z,39.97
2018-12-19T04:26:49.162Z,38.17
2018-12-19T04:29:29.387Z,27.03
2018-12-19T04:32:07.532Z,38.27
2018-12-19T04:34:44.486Z,33.43
2018-12-19T04:37:23.568Z,34.10
2018-12-19T04:40:05.763Z,37.57
2018-12-19T04:42:47.246Z,35.53
2018-12-19T04:45:29.189Z,37.53
2018-12-19T04:48:03.894Z,36.57
2018-12-19T04:50:46.615Z,40.10
2018-12-19T04:53:25.411Z,39.33
2018-12-19T04:56:06.589Z,34.63
2018-12-19T04:58:57.063Z,34.77
2018-12-19T05:04:44.374Z,22.93
2018-12-19T05:07:23.932Z,35.33
2018-12-19T05:10:02.588Z,35.17
2018-12-19T05:12:39.604Z,39.33
2018-12-19T05:15:16.065Z,31.00
2018-12-19T05:17:53.765Z,38.80
2018-12-19T05:20:26.241Z,35.57
2018-12-19T05:23:04.451Z,31.73
2018-12-19T05:25:44.009Z,30.43
2018-12-19T05:28:23.051Z,37.50
2018-12-19T05:31:03.699Z,37.93
2018-12-19T05:33:44.616Z,37.53
2018-12-19T05:36:24.669Z,36.97
2018-12-19T05:39:06.448Z,35.73
2018-12-19T05:41:46.743Z,38.10
2018-12-19T05:44:26.132Z,33.13
2018-12-19T05:47:06.216Z,34.60
2018-12-19T05:49:46.343Z,36.00
2018-12-19T05:52:31.329Z,35.53
2018-12-19T05:55:09.836Z,31.83
2018-12-19T05:57:50.372Z,33.70
2018-12-19T06:00:30.829Z,28.70
2018-12-19T06:03:14.349Z,33.23
2018-12-19T06:05:56.737Z,34.13
2018-12-19T06:08:34.406Z,23.80
2018-12-19T06:11:15.290Z,36.60
2018-12-19T06:13:56.080Z,32.13
2018-12-19T06:16:37.273Z,21.63
2018-12-19T06:19:17.263Z,36.30
2018-12-19T06:21:55.220Z,34.17
2018-12-19T06:24:36.520Z,34.47
2018-12-19T06:27:16.159Z,32.67
2018-12-19T06:29:56.516Z,32.90
2018-12-19T06:32:36.714Z,27.63
2018-12-19T06:35:17.403Z,27.97
2018-12-19T06:37:58.509Z,32.90
2018-12-19T06:40:39.387Z,27.07
2018-12-19T06:43:18.928Z,29.57
2018-12-19T06:46:00.891Z,30.93
2018-12-19T06:48:40.907Z,29.87
2018-12-19T06:51:24.027Z,28.40
2018-12-19T06:54:03.022Z,30.43
2018-12-19T06:56:43.280Z,27.40
2018-12-19T06:59:23.833Z,28.63
2018-12-19T07:02:02.211Z,31.80
2018-12-19T07:04:43.337Z,29.83
2018-12-19T07:07:23.724Z,28.93
2018-12-19T07:10:02.771Z,21.10
2018-12-19T07:12:42.579Z,22.93
2018-12-19T07:15:26.141Z,29.73
2018-12-19T07:18:06.284Z,29.17
2018-12-19T07:20:43.845Z,27.10
2018-12-19T07:23:22.545Z,27.97
2018-12-19T07:26:06.195Z,27.20
2018-12-19T07:28:43.603Z,29.10
2018-12-19T07:31:24.489Z,29.47
2018-12-19T07:34:03.107Z,27.73
2018-12-19T07:36:45.619Z,26.70
2018-12-19T07:39:24.723Z,26.07
2018-12-19T07:42:02.507Z,26.67
2018-12-19T07:44:40.456Z,25.60
2018-12-19T07:47:21.509Z,21.03
2018-12-19T07:50:03.949Z,21.57
2018-12-19T07:52:45.526Z,28.90
2018-12-19T07:55:27.299Z,25.00
2018-12-19T07:58:05.444Z,25.97
2018-12-19T08:00:44.731Z,24.63
2018-12-19T08:03:23.751Z,26.10
2018-12-19T08:06:01.063Z,22.03
2018-12-19T08:08:33.359Z,23.03
2018-12-19T08:11:16.139Z,22.50
2018-12-19T08:13:57.964Z,23.40
2018-12-19T08:16:35.752Z,24.47
2018-12-19T08:19:16.846Z,22.57
2018-12-19T08:21:58.160Z,23.27
2018-12-19T08:24:38.396Z,19.60
2018-12-19T08:27:18.252Z,22.27
2018-12-19T08:30:00.034Z,24.03
2018-12-19T08:32:43.322Z,22.57
2018-12-19T08:35:23.723Z,23.97
2018-12-19T08:38:03.678Z,21.80
2018-12-19T08:40:45.547Z,22.13
2018-12-19T08:43:27.614Z,23.03
2018-12-19T08:46:14.580Z,21.03
2018-12-19T08:48:57.121Z,21.67
2018-12-19T08:51:37.287Z,20.73
2018-12-19T08:54:19.951Z,22.10
2018-12-19T08:56:58.675Z,21.37
2018-12-19T08:59:39.023Z,22.13
2018-12-19T09:02:19.954Z,20.27
2018-12-19T09:04:58.815Z,20.57
2018-12-19T09:07:42.819Z,19.40
2018-12-19T09:10:24.948Z,21.60
2018-12-19T09:13:04.767Z,21.20
2018-12-19T09:15:47.253Z,17.03
2018-12-19T09:18:28.471Z,22.10
2018-12-19T09:21:09.901Z,22.43
2018-12-19T09:23:52.887Z,21.20
2018-12-19T09:26:35.083Z,19.30
2018-12-19T09:29:17.476Z,20.47
2018-12-19T09:31:58.510Z,19.50
2018-12-19T09:34:41.145Z,20.77
2018-12-19T09:37:20.456Z,18.10
2018-12-19T09:40:00.067Z,19.70
2018-12-19T09:42:40.090Z,19.20
2018-12-19T09:45:22.280Z,19.67
2018-12-19T09:48:04.245Z,20.10
2018-12-19T09:50:48.060Z,19.63
2018-12-19T09:53:29.399Z,15.93
2018-12-19T09:56:11.065Z,18.07
2018-12-19T09:58:49.490Z,21.23
2018-12-19T10:01:29.067Z,16.20
2018-12-19T10:04:13.490Z,17.53
2018-12-19T10:06:53.392Z,17.77
2018-12-19T10:09:36.053Z,18.40
2018-12-19T10:12:17.135Z,17.00
2018-12-19T10:14:59.302Z,16.53
2018-12-19T10:17:40.879Z,19.00
2018-12-19T10:20:20.181Z,18.80
2018-12-19T10:23:01.847Z,17.50
2018-12-19T10:25:42.539Z,18.30
2018-12-19T10:28:27.004Z,16.27
2018-12-19T10:31:06.968Z,17.90
2018-12-19T10:33:47.585Z,16.13
2018-12-19T10:36:30.574Z,16.97
2018-12-19T10:39:16.943Z,17.80
2018-12-19T10:41:56.786Z,17.30
2018-12-19T10:44:37.399Z,16.43
2018-12-19T10:47:14.643Z,15.37
2018-12-19T10:49:56.245Z,16.90
2018-12-19T10:52:37.596Z,15.00
2018-12-19T10:55:19.140Z,16.70
2018-12-19T10:57:59.266Z,18.10
2018-12-19T11:01:10.646Z,16.43
2018-12-19T11:03:48.964Z,17.00
2018-12-19T11:06:30.499Z,17.53
2018-12-19T11:09:12.603Z,16.00
2018-12-19T11:11:53.329Z,15.57
2018-12-19T11:14:32.550Z,14.40
2018-12-19T11:17:11.109Z,15.23
2018-12-19T11:19:53.509Z,16.93
2018-12-19T11:22:32.793Z,16.90
2018-12-19T11:25:13.565Z,14.93
2018-12-19T11:27:54.175Z,15.40
2018-12-19T11:30:35.545Z,13.57
2018-12-19T11:33:17.066Z,14.23
2018-12-19T11:35:58.102Z,14.50
2018-12-19T11:38:37.016Z,15.33
2018-12-19T11:41:18.140Z,15.77
2018-12-19T11:43:58.748Z,15.33
2018-12-19T11:46:41.916Z,15.70
2018-12-19T11:49:19.938Z,13.83
2018-12-19T11:52:01.764Z,13.90
2018-12-19T11:54:41.353Z,16.20
2018-12-19T11:57:19.690Z,14.23
2018-12-19T12:00:01.466Z,14.03
2018-12-19T12:02:41.657Z,14.80
2018-12-19T12:05:22.873Z,13.57
2018-12-19T12:08:02.661Z,14.20
2018-12-19T12:10:41.830Z,11.80
2018-12-19T12:13:20.265Z,13.80
2018-12-19T12:16:03.138Z,12.90
2018-12-19T12:18:43.541Z,12.87
2018-12-19T12:21:27.323Z,12.57
2018-12-19T12:24:11.754Z,13.60
2018-12-19T12:26:50.033Z,12.57
2018-12-19T12:29:31.914Z,12.27
2018-12-19T12:32:15.521Z,13.27
2018-12-19T12:34:56.731Z,13.63
2018-12-19T12:37:39.449Z,14.00
2018-12-19T12:40:15.059Z,13.27
2018-12-19T12:42:56.197Z,13.27
2018-12-19T12:45:37.139Z,14.40
2018-12-19T12:48:17.079Z,13.53
2018-12-19T12:50:56.421Z,13.17
2018-12-19T12:53:34.936Z,13.83
2018-12-19T12:56:14.353Z,12.50
2018-12-19T12:58:52.017Z,12.87
2018-12-19T13:01:30.632Z,13.57
2018-12-19T13:04:10.472Z,12.63
2018-12-19T13:06:53.255Z,13.57
2018-12-19T13:09:33.633Z,13.60
2018-12-19T13:12:15.695Z,12.60
2018-12-19T13:14:56.989Z,13.63
2018-12-19T13:17:36.360Z,13.53
2018-12-19T13:20:16.264Z,12.50
2018-12-19T13:22:56.689Z,12.03
2018-12-19T13:25:36.953Z,11.97
2018-12-19T13:28:17.268Z,13.93
2018-12-19T13:31:00.056Z,11.63
2018-12-19T13:33:41.472Z,13.13
2018-12-19T13:36:21.988Z,12.20
2018-12-19T13:39:02.544Z,13.27
2018-12-19T13:41:41.828Z,13.63
2018-12-19T13:44:24.368Z,13.23
2018-12-19T13:47:05.177Z,13.83
2018-12-19T13:49:46.326Z,14.43
2018-12-19T13:52:24.874Z,13.27
2018-12-19T13:55:04.910Z,14.27
2018-12-19T13:57:41.771Z,12.87
2018-12-19T14:00:22.614Z,13.33
2018-12-19T14:02:58.951Z,13.07
2018-12-19T14:05:37.837Z,13.20
2018-12-19T14:08:20.555Z,14.30
2018-12-19T14:11:01.894Z,14.30
2018-12-19T14:13:40.668Z,13.20
2018-12-19T14:16:20.704Z,14.13
2018-12-19T14:19:04.176Z,13.20
2018-12-19T14:21:40.808Z,13.77
2018-12-19T14:24:19.949Z,14.40
2018-12-19T14:26:56.979Z,14.43
2018-12-19T14:29:40.309Z,13.90
2018-12-19T14:32:19.257Z,13.73
2018-12-19T14:35:01.611Z,13.27
2018-12-19T14:37:38.757Z,12.70
2018-12-19T14:40:19.781Z,14.30
2018-12-19T14:42:57.575Z,14.30
2018-12-19T14:45:34.900Z,13.07
2018-12-19T14:48:17.981Z,13.73
2018-12-19T14:50:58.308Z,13.10
2018-12-19T14:53:38.773Z,13.43
2018-12-19T14:56:18.767Z,13.53
2018-12-19T14:58:59.376Z,13.47
2018-12-19T15:01:39.751Z,14.03
2018-12-19T15:04:22.613Z,14.07
2018-12-19T15:07:03.028Z,14.30
2018-12-19T15:09:42.846Z,12.60
2018-12-19T15:12:25.752Z,13.90
2018-12-19T15:15:04.303Z,14.33
2018-12-19T15:17:44.244Z,12.03
2018-12-19T15:20:24.982Z,13.97
2018-12-19T15:23:07.882Z,12.93
2018-12-19T15:25:47.066Z,12.43
2018-12-19T15:28:28.358Z,12.97
2018-12-19T15:31:08.672Z,13.73
2018-12-19T15:33:50.989Z,12.53
2018-12-19T15:36:29.626Z,13.93
2018-12-19T15:39:10.042Z,12.93
2018-12-19T15:41:53.485Z,13.67
2018-12-19T15:44:35.271Z,13.83
2018-12-19T15:47:11.196Z,13.63
2018-12-19T15:49:52.708Z,14.23
2018-12-19T15:52:31.692Z,13.10
2018-12-19T15:55:11.648Z,11.30
2018-12-19T15:57:51.911Z,14.07
2018-12-19T16:00:31.673Z,12.40
2018-12-19T16:03:10.940Z,13.20
2018-12-19T16:05:53.732Z,11.60
2018-12-19T16:08:31.632Z,12.37
2018-12-19T16:11:11.693Z,12.87
2018-12-19T16:13:52.052Z,12.60
2018-12-19T16:16:31.794Z,12.57
2018-12-19T16:19:12.986Z,13.37
2018-12-19T16:21:54.818Z,12.40
2018-12-19T16:24:39.915Z,13.97
2018-12-19T16:27:17.631Z,12.53
2018-12-19T16:29:56.102Z,13.07
2018-12-19T16:32:35.038Z,13.60
2018-12-19T16:35:16.266Z,13.33
2018-12-19T16:37:57.104Z,15.17
2018-12-19T16:40:36.837Z,13.73
2018-12-19T16:43:16.849Z,13.07
2018-12-19T16:45:55.592Z,12.50
2018-12-19T16:48:31.608Z,13.67
2018-12-19T16:51:14.322Z,13.60
2018-12-19T16:53:51.832Z,13.50
2018-12-19T16:56:30.858Z,15.17
2018-12-19T16:59:15.272Z,12.87
2018-12-19T17:01:52.388Z,12.67
2018-12-19T17:04:32.612Z,14.07
2018-12-19T17:07:14.343Z,13.00
2018-12-19T17:09:56.959Z,13.07
2018-12-19T17:12:37.469Z,13.50
2018-12-19T17:15:16.494Z,13.40
2018-12-19T17:17:59.499Z,14.13
2018-12-19T17:20:39.941Z,13.87
2018-12-19T17:23:19.538Z,13.60
2018-12-19T17:25:59.889Z,12.97
2018-12-19T17:28:37.663Z,13.67
2018-12-19T17:31:17.585Z,14.33
2018-12-19T17:33:56.869Z,13.20
2018-12-19T17:36:36.786Z,13.43
2018-12-19T17:39:13.280Z,14.40
2018-12-19T17:41:54.427Z,14.37
2018-12-19T17:44:38.093Z,15.83
2018-12-19T17:47:17.193Z,14.80
2018-12-19T17:49:57.153Z,15.83
2018-12-19T17:52:34.117Z,13.67
2018-12-19T17:55:14.904Z,14.10
2018-12-19T17:57:55.623Z,15.23
2018-12-19T18:00:36.589Z,15.17
2018-12-19T18:03:13.785Z,15.00
2018-12-19T18:05:56.022Z,14.83
2018-12-19T18:08:31.587Z,15.77
2018-12-19T18:11:06.623Z,15.97
2018-12-19T18:13:42.399Z,16.33
2018-12-19T18:16:16.146Z,16.73
2018-12-19T18:18:58.223Z,17.20
2018-12-19T18:21:32.433Z,15.67
2018-12-19T18:24:07.237Z,18.20
2018-12-19T18:26:42.261Z,17.00
2018-12-19T18:29:18.919Z,16.03
2018-12-19T18:31:56.128Z,17.20
2018-12-19T18:34:30.472Z,15.70
2018-12-19T18:37:04.691Z,17.17
2018-12-19T18:39:41.178Z,18.30
2018-12-19T18:42:16.397Z,16.87
2018-12-19T18:44:50.589Z,17.20
2018-12-19T18:47:23.904Z,17.23
2018-12-19T18:50:03.145Z,19.10
2018-12-19T18:52:43.607Z,18.70
2018-12-19T18:55:22.715Z,19.10
2018-12-19T18:58:04.944Z,18.33
2018-12-19T19:00:46.333Z,17.43
2018-12-19T19:03:31.049Z,18.63
2018-12-19T19:06:10.014Z,19.57
2018-12-19T19:08:50.553Z,18.83
2018-12-19T19:11:29.637Z,18.13
2018-12-19T19:14:11.279Z,19.27
2018-12-19T19:16:50.481Z,17.87
2018-12-19T19:19:24.678Z,20.87
2018-12-19T19:22:03.650Z,19.07
2018-12-19T19:24:39.619Z,19.57
2018-12-19T19:27:14.769Z,19.40
2018-12-19T19:29:52.908Z,19.67
2018-12-19T19:32:28.079Z,19.93
2018-12-19T19:35:05.612Z,20.53
2018-12-19T19:37:42.350Z,17.97
2018-12-19T19:40:16.780Z,20.47
2018-12-19T19:42:56.550Z,22.43
2018-12-19T19:45:36.146Z,20.97
2018-12-19T19:48:14.557Z,20.97
2018-12-19T19:50:54.891Z,21.03
2018-12-19T19:53:40.479Z,21.87
2018-12-19T19:56:14.075Z,22.73
2018-12-19T19:58:46.264Z,20.93
2018-12-19T20:01:23.342Z,20.60
2018-12-19T20:03:57.979Z,20.33
2018-12-19T20:06:36.298Z,22.67
2018-12-19T20:09:14.149Z,22.50
2018-12-19T20:11:47.824Z,22.40
2018-12-19T20:14:28.128Z,23.00
2018-12-19T20:17:02.401Z,22.07
2018-12-19T20:19:36.048Z,21.90
2018-12-19T20:22:11.061Z,23.83
2018-12-19T20:24:46.145Z,23.73
2018-12-19T20:27:24.166Z,21.93
2018-12-19T20:30:02.810Z,23.20
2018-12-19T20:32:38.442Z,24.13
2018-12-19T20:35:16.242Z,24.07
2018-12-19T20:37:56.329Z,26.33
2018-12-19T20:40:29.956Z,24.40
2018-12-19T20:43:08.083Z,22.03
2018-12-19T20:45:42.443Z,23.07
2018-12-19T20:48:20.465Z,22.40
2018-12-19T20:51:01.211Z,23.77
2018-12-19T20:53:41.703Z,24.57
2018-12-19T20:56:21.828Z,25.23
2018-12-19T20:59:01.404Z,24.73
2018-12-19T21:01:40.698Z,25.70
2018-12-19T21:04:21.423Z,23.73
2018-12-19T21:07:00.976Z,23.80
2018-12-19T21:09:41.828Z,23.23
2018-12-19T21:12:18.734Z,25.23
2018-12-19T21:15:01.436Z,24.27
2018-12-19T21:17:42.244Z,25.80
2018-12-19T21:20:26.210Z,25.50
2018-12-19T21:23:07.365Z,25.03
2018-12-19T21:25:50.389Z,23.30
2018-12-19T21:28:30.866Z,24.43
2018-12-19T21:31:13.921Z,26.50
2018-12-19T21:33:53.914Z,25.53
2018-12-19T21:36:35.307Z,22.93
2018-12-19T21:39:18.311Z,25.53
2018-12-19T21:41:56.041Z,25.57
2018-12-19T21:44:38.001Z,25.10
2018-12-19T21:47:17.452Z,25.43
2018-12-19T21:49:58.181Z,23.93
2018-12-19T21:52:40.439Z,24.80
2018-12-19T21:55:20.636Z,24.17
2018-12-19T21:57:59.479Z,25.43
2018-12-19T22:00:41.083Z,23.20
2018-12-19T22:03:18.241Z,22.77
2018-12-19T22:05:57.913Z,24.13
2018-12-19T22:08:36.165Z,25.10
2018-12-19T22:11:16.559Z,22.60
2018-12-19T22:14:00.949Z,25.33
2018-12-19T22:16:47.678Z,24.53
2018-12-19T22:19:29.683Z,22.93
2018-12-19T22:22:08.374Z,23.97
2018-12-19T22:24:47.262Z,23.50
2018-12-19T22:27:29.871Z,24.97
2018-12-19T22:30:12.824Z,25.10
2018-12-19T22:32:53.353Z,23.40
2018-12-19T22:35:34.530Z,22.27
2018-12-19T22:38:16.466Z,25.07
2018-12-19T22:40:56.897Z,24.83
2018-12-19T22:43:31.558Z,22.13
2018-12-19T22:46:09.330Z,22.90
2018-12-19T22:48:46.462Z,27.17
2018-12-19T22:51:28.426Z,25.13
2018-12-19T22:54:09.358Z,24.90
2018-12-19T22:56:48.448Z,27.10
2018-12-19T22:59:27.217Z,26.97
2018-12-19T23:02:10.005Z,27.37
2018-12-19T23:04:46.158Z,26.10
2018-12-19T23:07:28.466Z,25.30
2018-12-19T23:10:10.258Z,26.23
2018-12-19T23:12:52.009Z,28.17
2018-12-19T23:15:31.740Z,24.97
2018-12-19T23:18:19.008Z,26.63
2018-12-19T23:20:57.448Z,28.00
2018-12-19T23:23:37.822Z,26.77
2018-12-19T23:26:16.964Z,27.10
2018-12-19T23:28:57.799Z,25.03
2018-12-19T23:31:38.762Z,25.70
2018-12-19T23:34:18.671Z,26.20
2018-12-19T23:36:58.224Z,26.37
2018-12-19T23:39:34.957Z,27.60
2018-12-19T23:42:15.201Z,26.40
2018-12-19T23:44:54.443Z,26.63
2018-12-19T23:47:39.053Z,27.57
2018-12-19T23:50:19.067Z,25.80
2018-12-19T23:52:58.809Z,27.13
2018-12-19T23:55:42.332Z,24.27
2018-12-19T23:58:22.007Z,28.13
